sensor_id;sensor_type;location;lat;lon;timestamp;P1;P2;P0
65360;PMS5003;51958;55.018;73.536;2023-09-12T00:01:28;0.00;0.00;0.00
65360;PMS5003;51958;55.018;73.536;2023-09-12T00:04:33;0.00;0.00;0.00
65360;PMS5003;51958;55.018;73.536;2023-09-12T00:07:34;0.00;0.00;0.00
65360;PMS5003;51958;55.018;73.536;2023-09-12T00:10:35;0.00;0.00;0.00
65360;PMS5003;51958;55.018;73.536;2023-09-12T00:13:37;0.00;0.00;0.00
65360;PMS5003;51958;55.018;73.536;2023-09-12T00:16:38;0.00;0.00;0.00
65360;PMS5003;51958;55.018;73.536;2023-09-12T00:19:39;0.00;0.00;0.00
65360;PMS5003;51958;55.018;73.536;2023-09-12T00:22:41;0.00;0.00;0.00
65360;PMS5003;51958;55.018;73.536;2023-09-12T00:25:42;0.00;0.00;0.00
65360;PMS5003;51958;55.018;73.536;2023-09-12T00:28:43;0.00;0.00;0.00
65360;PMS5003;51958;55.018;73.536;2023-09-12T00:31:44;0.00;0.00;0.00
65360;PMS5003;51958;55.018;73.536;2023-09-12T00:34:45;0.00;0.00;0.00
65360;PMS5003;51958;55.018;73.536;2023-09-12T00:37:46;0.00;0.00;0.00
65360;PMS5003;51958;55.018;73.536;2023-09-12T00:40:47;0.00;0.00;0.00
65360;PMS5003;51958;55.018;73.536;2023-09-12T00:43:48;0.00;0.00;0.00
65360;PMS5003;51958;55.018;73.536;2023-09-12T00:46:49;0.00;0.00;0.00
65360;PMS5003;51958;55.018;73.536;2023-09-12T00:49:51;0.00;0.00;0.00
65360;PMS5003;51958;55.018;73.536;2023-09-12T00:52:53;0.00;0.00;0.00
65360;PMS5003;51958;55.018;73.536;2023-09-12T00:55:56;0.00;0.00;0.00
65360;PMS5003;51958;55.018;73.536;2023-09-12T00:58:58;0.00;0.00;0.00
65360;PMS5003;51958;55.018;73.536;2023-09-12T01:02:00;0.00;0.00;0.00
65360;PMS5003;51958;55.018;73.536;2023-09-12T01:05:02;0.00;0.00;0.00
65360;PMS5003;51958;55.018;73.536;2023-09-12T01:08:04;0.00;0.00;0.00
65360;PMS5003;51958;55.018;73.536;2023-09-12T01:11:05;0.00;0.00;0.00
65360;PMS5003;51958;55.018;73.536;2023-09-12T01:14:06;1.00;0.00;0.00
65360;PMS5003;51958;55.018;73.536;2023-09-12T01:17:07;1.00;0.00;0.00
65360;PMS5003;51958;55.018;73.536;2023-09-12T01:20:10;0.00;0.00;0.00
65360;PMS5003;51958;55.018;73.536;2023-09-12T01:29:22;0.00;0.00;0.00
65360;PMS5003;51958;55.018;73.536;2023-09-12T01:32:23;0.00;0.00;0.00
65360;PMS5003;51958;55.018;73.536;2023-09-12T01:35:25;0.00;0.00;0.00
65360;PMS5003;51958;55.018;73.536;2023-09-12T01:38:26;0.00;0.00;0.00
65360;PMS5003;51958;55.018;73.536;2023-09-12T01:41:28;0.00;0.00;0.00
65360;PMS5003;51958;55.018;73.536;2023-09-12T01:44:31;0.00;0.00;0.00
65360;PMS5003;51958;55.018;73.536;2023-09-12T01:47:35;0.00;0.00;0.00
65360;PMS5003;51958;55.018;73.536;2023-09-12T01:50:37;0.00;0.00;0.00
65360;PMS5003;51958;55.018;73.536;2023-09-12T01:53:39;0.00;0.00;0.00
65360;PMS5003;51958;55.018;73.536;2023-09-12T01:56:40;0.00;0.00;0.00
65360;PMS5003;51958;55.018;73.536;2023-09-12T01:59:41;0.00;0.00;0.00
65360;PMS5003;51958;55.018;73.536;2023-09-12T02:02:42;0.00;0.00;0.00
65360;PMS5003;51958;55.018;73.536;2023-09-12T02:05:44;0.00;0.00;0.00
65360;PMS5003;51958;55.018;73.536;2023-09-12T02:08:46;0.00;0.00;0.00
65360;PMS5003;51958;55.018;73.536;2023-09-12T02:11:48;0.00;0.00;0.00
65360;PMS5003;51958;55.018;73.536;2023-09-12T02:14:49;0.00;0.00;0.00
65360;PMS5003;51958;55.018;73.536;2023-09-12T02:17:51;0.00;0.00;0.00
65360;PMS5003;51958;55.018;73.536;2023-09-12T02:20:53;0.00;0.00;0.00
65360;PMS5003;51958;55.018;73.536;2023-09-12T02:23:54;0.00;0.00;0.00
65360;PMS5003;51958;55.018;73.536;2023-09-12T02:26:55;0.00;0.00;0.00
65360;PMS5003;51958;55.018;73.536;2023-09-12T02:29:56;0.00;0.00;0.00
65360;PMS5003;51958;55.018;73.536;2023-09-12T02:32:57;0.00;0.00;0.00
65360;PMS5003;51958;55.018;73.536;2023-09-12T02:35:58;0.00;0.00;0.00
65360;PMS5003;51958;55.018;73.536;2023-09-12T02:38:59;0.00;0.00;0.00
65360;PMS5003;51958;55.018;73.536;2023-09-12T02:42:00;0.00;0.00;0.00
65360;PMS5003;51958;55.018;73.536;2023-09-12T02:45:01;0.00;0.00;0.00
65360;PMS5003;51958;55.018;73.536;2023-09-12T02:48:06;0.00;0.00;0.00
65360;PMS5003;51958;55.018;73.536;2023-09-12T02:51:08;0.00;0.00;0.00
65360;PMS5003;51958;55.018;73.536;2023-09-12T02:54:09;0.00;0.00;0.00
65360;PMS5003;51958;55.018;73.536;2023-09-12T02:57:10;0.00;0.00;0.00
65360;PMS5003;51958;55.018;73.536;2023-09-12T03:00:11;0.00;0.00;0.00
65360;PMS5003;51958;55.018;73.536;2023-09-12T03:03:13;0.00;0.00;0.00
65360;PMS5003;51958;55.018;73.536;2023-09-12T03:06:15;0.00;0.00;0.00
65360;PMS5003;51958;55.018;73.536;2023-09-12T03:09:16;0.00;0.00;0.00
65360;PMS5003;51958;55.018;73.536;2023-09-12T03:12:19;0.00;0.00;0.00
65360;PMS5003;51958;55.018;73.536;2023-09-12T03:15:20;0.00;0.00;0.00
65360;PMS5003;51958;55.018;73.536;2023-09-12T03:18:21;0.00;0.00;0.00
65360;PMS5003;51958;55.018;73.536;2023-09-12T03:21:22;0.00;0.00;0.00
65360;PMS5003;51958;55.018;73.536;2023-09-12T03:24:23;0.00;0.00;0.00
65360;PMS5003;51958;55.018;73.536;2023-09-12T03:27:25;0.00;0.00;0.00
65360;PMS5003;51958;55.018;73.536;2023-09-12T03:30:27;0.00;0.00;0.00
65360;PMS5003;51958;55.018;73.536;2023-09-12T03:33:28;0.00;0.00;0.00
65360;PMS5003;51958;55.018;73.536;2023-09-12T03:36:29;0.00;0.00;0.00
65360;PMS5003;51958;55.018;73.536;2023-09-12T03:39:30;0.00;0.00;0.00
65360;PMS5003;51958;55.018;73.536;2023-09-12T03:42:31;0.00;0.00;0.00
65360;PMS5003;51958;55.018;73.536;2023-09-12T03:45:34;0.00;0.00;0.00
65360;PMS5003;51958;55.018;73.536;2023-09-12T03:48:35;1.00;1.00;0.00
65360;PMS5003;51958;55.018;73.536;2023-09-12T03:51:37;0.00;0.00;0.00
65360;PMS5003;51958;55.018;73.536;2023-09-12T03:54:39;1.00;0.00;0.00
65360;PMS5003;51958;55.018;73.536;2023-09-12T03:57:40;1.00;0.00;0.00
65360;PMS5003;51958;55.018;73.536;2023-09-12T04:00:41;1.00;0.00;0.00
65360;PMS5003;51958;55.018;73.536;2023-09-12T04:03:43;1.00;0.00;0.00
65360;PMS5003;51958;55.018;73.536;2023-09-12T04:06:45;1.00;0.00;0.00
65360;PMS5003;51958;55.018;73.536;2023-09-12T04:09:47;0.00;0.00;0.00
65360;PMS5003;51958;55.018;73.536;2023-09-12T04:12:48;1.00;0.00;0.00
65360;PMS5003;51958;55.018;73.536;2023-09-12T04:15:49;4.50;3.50;0.00
65360;PMS5003;51958;55.018;73.536;2023-09-12T04:18:50;4.25;4.25;2.00
65360;PMS5003;51958;55.018;73.536;2023-09-12T04:21:51;1.00;1.00;0.00
65360;PMS5003;51958;55.018;73.536;2023-09-12T04:24:53;3.00;2.75;0.00
65360;PMS5003;51958;55.018;73.536;2023-09-12T04:27:53;2.67;2.67;0.00
65360;PMS5003;51958;55.018;73.536;2023-09-12T04:31:01;2.00;2.00;0.00
65360;PMS5003;51958;55.018;73.536;2023-09-12T04:34:03;3.00;3.00;0.00
65360;PMS5003;51958;55.018;73.536;2023-09-12T04:37:04;0.00;0.00;0.00
65360;PMS5003;51958;55.018;73.536;2023-09-12T04:40:06;0.00;0.00;0.00
65360;PMS5003;51958;55.018;73.536;2023-09-12T04:43:08;0.00;0.00;0.00
65360;PMS5003;51958;55.018;73.536;2023-09-12T04:46:09;0.00;0.00;0.00
65360;PMS5003;51958;55.018;73.536;2023-09-12T04:49:10;0.25;0.00;0.00
65360;PMS5003;51958;55.018;73.536;2023-09-12T04:52:12;11.67;10.00;3.67
65360;PMS5003;51958;55.018;73.536;2023-09-12T04:55:13;8.00;7.00;4.00
65360;PMS5003;51958;55.018;73.536;2023-09-12T04:58:14;2.00;2.00;1.00
65360;PMS5003;51958;55.018;73.536;2023-09-12T05:01:15;2.00;2.00;0.00
65360;PMS5003;51958;55.018;73.536;2023-09-12T05:04:17;4.00;3.00;0.00
65360;PMS5003;51958;55.018;73.536;2023-09-12T05:07:19;3.00;3.00;0.00
65360;PMS5003;51958;55.018;73.536;2023-09-12T05:10:20;2.00;2.00;0.00
65360;PMS5003;51958;55.018;73.536;2023-09-12T05:13:22;2.00;1.00;0.00
65360;PMS5003;51958;55.018;73.536;2023-09-12T05:16:23;5.00;2.00;0.00
65360;PMS5003;51958;55.018;73.536;2023-09-12T05:19:24;3.00;1.00;0.00
65360;PMS5003;51958;55.018;73.536;2023-09-12T05:22:26;1.00;1.00;0.00
65360;PMS5003;51958;55.018;73.536;2023-09-12T05:25:28;2.00;2.00;0.00
65360;PMS5003;51958;55.018;73.536;2023-09-12T05:28:31;5.00;5.00;2.50
65360;PMS5003;51958;55.018;73.536;2023-09-12T05:31:32;2.00;2.00;1.00
65360;PMS5003;51958;55.018;73.536;2023-09-12T05:34:34;1.00;1.00;1.00
65360;PMS5003;51958;55.018;73.536;2023-09-12T05:37:35;2.00;2.00;0.00
65360;PMS5003;51958;55.018;73.536;2023-09-12T05:40:36;1.00;1.00;0.00
65360;PMS5003;51958;55.018;73.536;2023-09-12T05:43:38;3.00;2.00;1.00
65360;PMS5003;51958;55.018;73.536;2023-09-12T05:46:39;3.00;3.00;1.00
65360;PMS5003;51958;55.018;73.536;2023-09-12T05:49:40;3.00;3.00;0.00
65360;PMS5003;51958;55.018;73.536;2023-09-12T05:52:41;2.00;2.00;0.00
65360;PMS5003;51958;55.018;73.536;2023-09-12T05:55:45;2.00;2.00;0.00
65360;PMS5003;51958;55.018;73.536;2023-09-12T05:58:46;3.25;3.00;1.00
65360;PMS5003;51958;55.018;73.536;2023-09-12T06:01:47;1.33;1.33;0.00
65360;PMS5003;51958;55.018;73.536;2023-09-12T06:04:49;5.00;3.25;1.00
65360;PMS5003;51958;55.018;73.536;2023-09-12T06:07:51;2.50;2.50;0.50
65360;PMS5003;51958;55.018;73.536;2023-09-12T06:10:52;2.00;0.00;0.00
65360;PMS5003;51958;55.018;73.536;2023-09-12T06:13:55;5.00;3.00;0.00
65360;PMS5003;51958;55.018;73.536;2023-09-12T06:16:56;3.00;3.00;0.00
65360;PMS5003;51958;55.018;73.536;2023-09-12T06:19:57;4.00;4.00;1.00
65360;PMS5003;51958;55.018;73.536;2023-09-12T06:22:58;4.00;4.00;0.00
65360;PMS5003;51958;55.018;73.536;2023-09-12T06:26:00;3.00;3.00;0.00
65360;PMS5003;51958;55.018;73.536;2023-09-12T06:29:01;2.00;2.00;0.00
65360;PMS5003;51958;55.018;73.536;2023-09-12T06:32:04;2.00;2.00;0.00
65360;PMS5003;51958;55.018;73.536;2023-09-12T06:35:05;2.25;2.00;0.00
65360;PMS5003;51958;55.018;73.536;2023-09-12T06:38:06;3.00;2.25;0.00
65360;PMS5003;51958;55.018;73.536;2023-09-12T06:41:09;4.00;4.00;0.00
65360;PMS5003;51958;55.018;73.536;2023-09-12T06:44:10;6.00;5.33;1.00
65360;PMS5003;51958;55.018;73.536;2023-09-12T06:47:14;4.00;4.00;1.00
65360;PMS5003;51958;55.018;73.536;2023-09-12T06:50:15;3.00;3.00;1.00
65360;PMS5003;51958;55.018;73.536;2023-09-12T06:53:16;4.33;3.33;1.33
65360;PMS5003;51958;55.018;73.536;2023-09-12T06:56:17;4.00;3.25;2.00
65360;PMS5003;51958;55.018;73.536;2023-09-12T06:59:18;4.00;3.00;1.00
65360;PMS5003;51958;55.018;73.536;2023-09-12T07:02:19;5.33;5.33;1.00
65360;PMS5003;51958;55.018;73.536;2023-09-12T07:05:21;4.25;4.00;1.00
65360;PMS5003;51958;55.018;73.536;2023-09-12T07:08:22;2.50;2.50;0.00
65360;PMS5003;51958;55.018;73.536;2023-09-12T07:11:23;5.25;5.00;1.00
65360;PMS5003;51958;55.018;73.536;2023-09-12T07:14:25;4.33;4.00;2.00
65360;PMS5003;51958;55.018;73.536;2023-09-12T07:17:27;3.50;3.00;1.00
65360;PMS5003;51958;55.018;73.536;2023-09-12T07:20:28;4.25;3.75;1.00
65360;PMS5003;51958;55.018;73.536;2023-09-12T07:23:29;3.00;3.00;1.00
65360;PMS5003;51958;55.018;73.536;2023-09-12T07:26:30;3.00;2.25;1.00
65360;PMS5003;51958;55.018;73.536;2023-09-12T07:29:32;2.00;2.00;0.00
65360;PMS5003;51958;55.018;73.536;2023-09-12T07:32:33;3.00;3.00;0.00
65360;PMS5003;51958;55.018;73.536;2023-09-12T07:35:34;3.00;3.00;0.00
65360;PMS5003;51958;55.018;73.536;2023-09-12T07:38:35;3.00;3.00;0.00
65360;PMS5003;51958;55.018;73.536;2023-09-12T07:41:38;4.00;4.00;0.00
65360;PMS5003;51958;55.018;73.536;2023-09-12T07:44:39;2.00;2.00;0.00
65360;PMS5003;51958;55.018;73.536;2023-09-12T07:47:40;2.00;2.00;0.00
65360;PMS5003;51958;55.018;73.536;2023-09-12T07:50:41;1.50;1.00;0.00
65360;PMS5003;51958;55.018;73.536;2023-09-12T07:53:43;2.00;1.33;0.00
65360;PMS5003;51958;55.018;73.536;2023-09-12T07:56:44;3.00;3.00;0.00
65360;PMS5003;51958;55.018;73.536;2023-09-12T07:59:45;3.00;3.00;0.00
65360;PMS5003;51958;55.018;73.536;2023-09-12T08:02:46;5.67;3.67;0.00
65360;PMS5003;51958;55.018;73.536;2023-09-12T08:05:55;4.75;2.00;0.00
65360;PMS5003;51958;55.018;73.536;2023-09-12T08:08:56;3.00;1.00;0.00
65360;PMS5003;51958;55.018;73.536;2023-09-12T08:11:57;5.00;2.75;0.00
65360;PMS5003;51958;55.018;73.536;2023-09-12T08:14:58;4.00;3.33;0.00
65360;PMS5003;51958;55.018;73.536;2023-09-12T08:18:03;4.25;4.25;0.00
65360;PMS5003;51958;55.018;73.536;2023-09-12T08:21:04;3.25;2.00;0.00
65360;PMS5003;51958;55.018;73.536;2023-09-12T08:24:05;3.00;1.75;0.00
65360;PMS5003;51958;55.018;73.536;2023-09-12T08:27:07;3.00;2.00;0.00
65360;PMS5003;51958;55.018;73.536;2023-09-12T08:30:15;3.00;3.00;0.00
65360;PMS5003;51958;55.018;73.536;2023-09-12T08:33:16;1.00;1.00;0.00
65360;PMS5003;51958;55.018;73.536;2023-09-12T08:36:17;3.00;3.00;0.00
65360;PMS5003;51958;55.018;73.536;2023-09-12T08:39:24;3.00;2.00;0.00
65360;PMS5003;51958;55.018;73.536;2023-09-12T08:42:27;2.00;2.00;0.00
65360;PMS5003;51958;55.018;73.536;2023-09-12T08:45:29;3.33;3.00;0.00
65360;PMS5003;51958;55.018;73.536;2023-09-12T08:48:31;2.25;2.25;0.25
65360;PMS5003;51958;55.018;73.536;2023-09-12T08:51:32;3.00;3.00;0.00
65360;PMS5003;51958;55.018;73.536;2023-09-12T08:54:34;2.00;2.00;0.00
65360;PMS5003;51958;55.018;73.536;2023-09-12T08:57:38;3.00;3.00;0.00
65360;PMS5003;51958;55.018;73.536;2023-09-12T09:00:40;4.00;4.00;0.00
65360;PMS5003;51958;55.018;73.536;2023-09-12T09:03:44;3.50;2.50;0.75
65360;PMS5003;51958;55.018;73.536;2023-09-12T09:06:45;1.25;0.25;0.00
65360;PMS5003;51958;55.018;73.536;2023-09-12T09:09:47;4.50;3.75;0.00
65360;PMS5003;51958;55.018;73.536;2023-09-12T09:12:48;3.00;2.75;0.00
65360;PMS5003;51958;55.018;73.536;2023-09-12T09:15:49;2.25;1.00;0.00
65360;PMS5003;51958;55.018;73.536;2023-09-12T09:19:09;2.50;2.25;0.00
65360;PMS5003;51958;55.018;73.536;2023-09-12T09:22:11;4.00;3.00;0.00
65360;PMS5003;51958;55.018;73.536;2023-09-12T09:25:12;3.00;3.00;0.00
65360;PMS5003;51958;55.018;73.536;2023-09-12T09:28:17;3.00;3.00;0.00
65360;PMS5003;51958;55.018;73.536;2023-09-12T09:31:20;2.75;2.00;0.00
65360;PMS5003;51958;55.018;73.536;2023-09-12T09:34:22;3.00;3.00;0.00
65360;PMS5003;51958;55.018;73.536;2023-09-12T09:37:25;2.25;2.25;0.00
65360;PMS5003;51958;55.018;73.536;2023-09-12T09:40:26;3.00;2.00;0.00
65360;PMS5003;51958;55.018;73.536;2023-09-12T09:43:29;3.50;3.25;0.00
65360;PMS5003;51958;55.018;73.536;2023-09-12T09:46:32;3.00;3.00;0.00
65360;PMS5003;51958;55.018;73.536;2023-09-12T09:49:35;6.00;4.00;0.25
65360;PMS5003;51958;55.018;73.536;2023-09-12T09:52:36;4.00;4.00;0.00
65360;PMS5003;51958;55.018;73.536;2023-09-12T09:55:37;4.00;4.00;0.00
65360;PMS5003;51958;55.018;73.536;2023-09-12T09:58:42;4.00;3.00;1.00
65360;PMS5003;51958;55.018;73.536;2023-09-12T10:01:46;6.50;6.50;2.25
65360;PMS5003;51958;55.018;73.536;2023-09-12T10:05:03;5.00;5.00;2.00
65360;PMS5003;51958;55.018;73.536;2023-09-12T10:08:06;6.00;5.00;2.00
65360;PMS5003;51958;55.018;73.536;2023-09-12T10:11:07;7.50;7.50;3.50
65360;PMS5003;51958;55.018;73.536;2023-09-12T10:14:09;4.00;4.00;2.00
65360;PMS5003;51958;55.018;73.536;2023-09-12T10:17:10;5.00;5.00;2.25
65360;PMS5003;51958;55.018;73.536;2023-09-12T10:20:18;7.50;7.50;3.25
65360;PMS5003;51958;55.018;73.536;2023-09-12T10:23:30;7.00;7.00;3.00
65360;PMS5003;51958;55.018;73.536;2023-09-12T10:26:37;5.00;4.00;3.00
65360;PMS5003;51958;55.018;73.536;2023-09-12T10:29:44;4.00;4.00;1.00
65360;PMS5003;51958;55.018;73.536;2023-09-12T10:32:48;5.75;5.75;3.00
65360;PMS5003;51958;55.018;73.536;2023-09-12T10:35:50;5.00;5.00;3.00
65360;PMS5003;51958;55.018;73.536;2023-09-12T10:38:52;6.75;5.75;2.00
65360;PMS5003;51958;55.018;73.536;2023-09-12T10:41:53;5.00;5.00;1.00
65360;PMS5003;51958;55.018;73.536;2023-09-12T10:44:55;5.67;5.67;1.67
65360;PMS5003;51958;55.018;73.536;2023-09-12T10:47:57;10.00;9.00;3.00
65360;PMS5003;51958;55.018;73.536;2023-09-12T10:50:58;7.00;7.00;2.00
65360;PMS5003;51958;55.018;73.536;2023-09-12T10:54:01;7.00;6.00;2.00
65360;PMS5003;51958;55.018;73.536;2023-09-12T10:57:08;6.00;5.00;2.00
65360;PMS5003;51958;55.018;73.536;2023-09-12T11:00:10;4.00;4.00;1.50
65360;PMS5003;51958;55.018;73.536;2023-09-12T11:06:29;8.00;8.00;2.00
65360;PMS5003;51958;55.018;73.536;2023-09-12T11:09:30;5.00;5.00;2.00
65360;PMS5003;51958;55.018;73.536;2023-09-12T11:12:36;10.50;9.75;4.00
65360;PMS5003;51958;55.018;73.536;2023-09-12T11:15:37;9.33;7.00;2.33
65360;PMS5003;51958;55.018;73.536;2023-09-12T11:22:21;10.00;9.25;6.00
65360;PMS5003;51958;55.018;73.536;2023-09-12T11:25:23;9.00;9.00;4.00
65360;PMS5003;51958;55.018;73.536;2023-09-12T11:28:29;9.50;9.00;5.50
65360;PMS5003;51958;55.018;73.536;2023-09-12T11:31:30;8.00;7.00;3.00
65360;PMS5003;51958;55.018;73.536;2023-09-12T11:34:40;6.00;6.00;4.00
65360;PMS5003;51958;55.018;73.536;2023-09-12T11:37:51;5.00;5.00;2.00
65360;PMS5003;51958;55.018;73.536;2023-09-12T11:40:53;5.00;5.00;2.25
65360;PMS5003;51958;55.018;73.536;2023-09-12T11:43:55;5.00;5.00;3.00
65360;PMS5003;51958;55.018;73.536;2023-09-12T11:46:57;1.67;1.67;1.00
65360;PMS5003;51958;55.018;73.536;2023-09-12T11:50:04;3.00;3.00;0.00
65360;PMS5003;51958;55.018;73.536;2023-09-12T11:53:07;6.75;6.00;0.50
65360;PMS5003;51958;55.018;73.536;2023-09-12T11:56:08;8.00;7.00;4.00
65360;PMS5003;51958;55.018;73.536;2023-09-12T11:59:09;7.75;7.75;5.00
65360;PMS5003;51958;55.018;73.536;2023-09-12T12:02:11;8.00;8.00;5.00
65360;PMS5003;51958;55.018;73.536;2023-09-12T12:05:12;6.00;6.00;5.00
65360;PMS5003;51958;55.018;73.536;2023-09-12T12:08:14;6.00;5.00;3.00
65360;PMS5003;51958;55.018;73.536;2023-09-12T12:11:15;8.75;8.00;4.00
65360;PMS5003;51958;55.018;73.536;2023-09-12T12:14:16;9.25;9.00;4.00
65360;PMS5003;51958;55.018;73.536;2023-09-12T12:17:20;9.00;9.00;4.00
65360;PMS5003;51958;55.018;73.536;2023-09-12T12:20:22;7.00;6.00;4.00
65360;PMS5003;51958;55.018;73.536;2023-09-12T12:23:23;9.00;9.00;5.00
65360;PMS5003;51958;55.018;73.536;2023-09-12T12:26:25;8.00;7.00;5.00
65360;PMS5003;51958;55.018;73.536;2023-09-12T12:29:27;9.00;7.00;4.00
65360;PMS5003;51958;55.018;73.536;2023-09-12T12:32:28;9.25;9.00;4.00
65360;PMS5003;51958;55.018;73.536;2023-09-12T12:35:29;7.00;7.00;4.00
65360;PMS5003;51958;55.018;73.536;2023-09-12T12:38:32;7.00;7.00;5.00
65360;PMS5003;51958;55.018;73.536;2023-09-12T12:41:34;6.00;5.00;3.75
65360;PMS5003;51958;55.018;73.536;2023-09-12T12:44:54;6.00;5.25;3.00
65360;PMS5003;51958;55.018;73.536;2023-09-12T12:47:59;7.00;6.00;3.00
65360;PMS5003;51958;55.018;73.536;2023-09-12T12:51:12;6.00;5.25;3.00
65360;PMS5003;51958;55.018;73.536;2023-09-12T12:54:14;9.25;8.75;5.00
65360;PMS5003;51958;55.018;73.536;2023-09-12T12:57:18;11.00;9.00;4.00
65360;PMS5003;51958;55.018;73.536;2023-09-12T13:00:19;12.75;10.50;6.00
65360;PMS5003;51958;55.018;73.536;2023-09-12T13:03:21;17.25;13.00;6.00
65360;PMS5003;51958;55.018;73.536;2023-09-12T13:06:22;16.33;12.00;5.00
65360;PMS5003;51958;55.018;73.536;2023-09-12T13:09:24;12.00;8.00;5.00
65360;PMS5003;51958;55.018;73.536;2023-09-12T13:12:25;7.50;7.00;3.00
65360;PMS5003;51958;55.018;73.536;2023-09-12T13:15:26;8.50;7.25;4.00
65360;PMS5003;51958;55.018;73.536;2023-09-12T13:18:27;8.00;7.00;4.00
65360;PMS5003;51958;55.018;73.536;2023-09-12T13:21:28;7.00;7.00;3.00
65360;PMS5003;51958;55.018;73.536;2023-09-12T13:24:29;6.00;6.00;2.00
65360;PMS5003;51958;55.018;73.536;2023-09-12T13:27:30;6.00;6.00;3.00
65360;PMS5003;51958;55.018;73.536;2023-09-12T13:30:31;10.75;8.50;4.00
65360;PMS5003;51958;55.018;73.536;2023-09-12T13:33:33;11.00;9.25;4.75
65360;PMS5003;51958;55.018;73.536;2023-09-12T13:36:34;14.67;12.67;6.67
65360;PMS5003;51958;55.018;73.536;2023-09-12T13:39:35;18.25;16.50;8.00
65360;PMS5003;51958;55.018;73.536;2023-09-12T13:42:36;21.00;18.00;8.00
65360;PMS5003;51958;55.018;73.536;2023-09-12T13:45:38;19.00;18.00;7.00
65360;PMS5003;51958;55.018;73.536;2023-09-12T13:48:39;18.00;15.00;5.00
65360;PMS5003;51958;55.018;73.536;2023-09-12T13:51:40;14.50;12.50;4.00
65360;PMS5003;51958;55.018;73.536;2023-09-12T13:54:41;9.50;7.25;3.00
65360;PMS5003;51958;55.018;73.536;2023-09-12T13:57:43;13.00;10.50;5.00
65360;PMS5003;51958;55.018;73.536;2023-09-12T14:00:44;11.50;9.00;5.25
65360;PMS5003;51958;55.018;73.536;2023-09-12T14:03:45;28.00;24.50;14.50
65360;PMS5003;51958;55.018;73.536;2023-09-12T14:06:46;49.50;39.50;22.75
65360;PMS5003;51958;55.018;73.536;2023-09-12T14:09:47;54.75;42.00;25.25
65360;PMS5003;51958;55.018;73.536;2023-09-12T14:12:50;50.00;41.00;24.50
65360;PMS5003;51958;55.018;73.536;2023-09-12T14:15:51;43.00;34.00;22.00
65360;PMS5003;51958;55.018;73.536;2023-09-12T14:18:54;34.75;31.00;20.50
65360;PMS5003;51958;55.018;73.536;2023-09-12T14:21:55;26.75;26.00;18.00
65360;PMS5003;51958;55.018;73.536;2023-09-12T14:24:56;20.75;19.75;12.75
65360;PMS5003;51958;55.018;73.536;2023-09-12T14:27:57;15.67;14.67;6.00
65360;PMS5003;51958;55.018;73.536;2023-09-12T14:31:00;15.67;14.00;6.00
65360;PMS5003;51958;55.018;73.536;2023-09-12T14:34:02;17.00;13.00;5.25
65360;PMS5003;51958;55.018;73.536;2023-09-12T14:37:20;16.00;12.00;5.00
65360;PMS5003;51958;55.018;73.536;2023-09-12T14:40:23;15.25;10.25;4.75
65360;PMS5003;51958;55.018;73.536;2023-09-12T14:43:25;13.50;6.00;3.00
65360;PMS5003;51958;55.018;73.536;2023-09-12T14:46:29;9.00;8.00;4.00
65360;PMS5003;51958;55.018;73.536;2023-09-12T14:49:30;6.75;6.75;4.00
65360;PMS5003;51958;55.018;73.536;2023-09-12T14:52:32;7.50;7.00;3.50
65360;PMS5003;51958;55.018;73.536;2023-09-12T14:55:35;7.00;6.75;3.75
65360;PMS5003;51958;55.018;73.536;2023-09-12T14:58:37;7.50;7.00;2.00
65360;PMS5003;51958;55.018;73.536;2023-09-12T15:01:39;7.00;7.00;3.00
65360;PMS5003;51958;55.018;73.536;2023-09-12T15:04:40;6.00;6.00;3.00
65360;PMS5003;51958;55.018;73.536;2023-09-12T15:07:41;7.00;6.00;3.00
65360;PMS5003;51958;55.018;73.536;2023-09-12T15:10:42;6.00;6.00;2.00
65360;PMS5003;51958;55.018;73.536;2023-09-12T15:13:44;8.00;8.00;2.25
65360;PMS5003;51958;55.018;73.536;2023-09-12T15:16:47;8.50;8.50;5.00
65360;PMS5003;51958;55.018;73.536;2023-09-12T15:19:49;9.00;9.00;5.00
65360;PMS5003;51958;55.018;73.536;2023-09-12T15:22:51;9.00;9.00;4.00
65360;PMS5003;51958;55.018;73.536;2023-09-12T15:25:54;7.50;7.25;3.75
65360;PMS5003;51958;55.018;73.536;2023-09-12T15:28:57;7.50;7.50;4.00
65360;PMS5003;51958;55.018;73.536;2023-09-12T15:32:00;6.00;6.00;3.00
65360;PMS5003;51958;55.018;73.536;2023-09-12T15:35:02;6.50;6.50;2.00
65360;PMS5003;51958;55.018;73.536;2023-09-12T15:38:04;6.00;6.00;2.00
65360;PMS5003;51958;55.018;73.536;2023-09-12T15:41:09;6.00;6.00;2.00
65360;PMS5003;51958;55.018;73.536;2023-09-12T15:44:10;5.75;5.75;1.00
65360;PMS5003;51958;55.018;73.536;2023-09-12T15:47:11;5.75;5.00;1.00
65360;PMS5003;51958;55.018;73.536;2023-09-12T15:50:13;6.25;5.25;2.00
65360;PMS5003;51958;55.018;73.536;2023-09-12T15:53:15;6.00;6.00;2.00
65360;PMS5003;51958;55.018;73.536;2023-09-12T15:56:17;7.00;6.00;3.00
65360;PMS5003;51958;55.018;73.536;2023-09-12T15:59:18;4.33;4.33;2.00
65360;PMS5003;51958;55.018;73.536;2023-09-12T16:02:22;6.00;6.00;3.00
65360;PMS5003;51958;55.018;73.536;2023-09-12T16:05:23;6.00;6.00;3.00
65360;PMS5003;51958;55.018;73.536;2023-09-12T16:08:24;7.33;7.00;4.00
65360;PMS5003;51958;55.018;73.536;2023-09-12T16:11:26;7.00;6.75;3.00
65360;PMS5003;51958;55.018;73.536;2023-09-12T16:14:27;8.00;8.00;4.00
65360;PMS5003;51958;55.018;73.536;2023-09-12T16:17:31;10.00;10.00;6.00
65360;PMS5003;51958;55.018;73.536;2023-09-12T16:20:33;9.00;8.00;4.00
65360;PMS5003;51958;55.018;73.536;2023-09-12T16:23:35;7.50;7.50;4.00
65360;PMS5003;51958;55.018;73.536;2023-09-12T16:26:39;5.00;5.00;3.00
65360;PMS5003;51958;55.018;73.536;2023-09-12T16:29:40;6.00;5.00;3.00
65360;PMS5003;51958;55.018;73.536;2023-09-12T16:32:41;6.00;6.00;3.00
65360;PMS5003;51958;55.018;73.536;2023-09-12T16:35:42;5.00;5.00;2.00
65360;PMS5003;51958;55.018;73.536;2023-09-12T16:38:48;5.00;5.00;1.00
65360;PMS5003;51958;55.018;73.536;2023-09-12T16:41:53;5.00;5.00;2.00
65360;PMS5003;51958;55.018;73.536;2023-09-12T16:44:55;5.25;5.25;1.00
65360;PMS5003;51958;55.018;73.536;2023-09-12T16:47:57;5.00;4.25;0.00
65360;PMS5003;51958;55.018;73.536;2023-09-12T16:51:04;3.50;3.50;1.00
65360;PMS5003;51958;55.018;73.536;2023-09-12T16:54:06;4.00;4.00;2.25
65360;PMS5003;51958;55.018;73.536;2023-09-12T16:57:07;5.00;5.00;2.00
65360;PMS5003;51958;55.018;73.536;2023-09-12T17:00:15;4.00;4.00;2.00
65360;PMS5003;51958;55.018;73.536;2023-09-12T17:03:17;4.50;4.50;2.00
65360;PMS5003;51958;55.018;73.536;2023-09-12T17:06:18;4.75;4.75;2.00
65360;PMS5003;51958;55.018;73.536;2023-09-12T17:09:20;5.00;5.00;2.00
65360;PMS5003;51958;55.018;73.536;2023-09-12T17:12:22;5.00;4.00;2.00
65360;PMS5003;51958;55.018;73.536;2023-09-12T17:15:24;5.00;4.00;3.50
65360;PMS5003;51958;55.018;73.536;2023-09-12T17:18:26;5.00;4.00;2.00
65360;PMS5003;51958;55.018;73.536;2023-09-12T17:21:29;4.33;4.00;2.00
65360;PMS5003;51958;55.018;73.536;2023-09-12T17:24:30;5.00;5.00;1.00
65360;PMS5003;51958;55.018;73.536;2023-09-12T17:27:32;5.67;5.33;1.33
65360;PMS5003;51958;55.018;73.536;2023-09-12T17:30:34;5.00;4.00;2.00
65360;PMS5003;51958;55.018;73.536;2023-09-12T17:33:40;4.00;4.00;1.00
65360;PMS5003;51958;55.018;73.536;2023-09-12T17:36:42;4.00;4.00;0.00
65360;PMS5003;51958;55.018;73.536;2023-09-12T17:39:43;6.00;5.00;2.00
65360;PMS5003;51958;55.018;73.536;2023-09-12T17:42:44;5.00;5.00;1.00